METAR LDZD 280730Z 17007KT 120V200 9999 FEW060 31/13 Q1015 NOSIG=
METAR LDZD 280700Z 12005KT 070V160 9999 FEW060 31/13 Q1015 BECMG 13007KT=
METAR LDZD 280630Z 11004KT 070V150 9999 FEW060 29/14 Q1015 BECMG 13006KT=
METAR LDZD 280600Z VRB02KT 9999 FEW060 26/14 Q1015 BECMG 13006KT=
METAR LDZD 280530Z 10005KT 9999 FEW060 25/15 Q1015 NOSIG=
METAR LDZD 280500Z 11004KT 9999 FEW060 21/17 Q1015 NOSIG=
METAR COR LDZD 280430Z 09003KT 9999 FEW060 19/15 Q1014 NOSIG=
METAR LDZD 280400Z 09003KT 9999 FEW060 19/15 Q1015 NOSIG=
METAR LDZD 280330Z VRB01KT 9999 FEW060 19/15 Q1015 NOSIG=
METAR LDZD 280300Z VRB01KT CAVOK 20/16 Q1015 NOSIG=
METAR LDZD 280230Z VRB02KT CAVOK 20/16 Q1015 NOSIG=
METAR LDZD 280200Z 15003KT CAVOK 21/16 Q1015 NOSIG=
METAR LDZD 280130Z 11004KT CAVOK 20/17 Q1015=
METAR LDZD 280100Z 09006KT CAVOK 22/16 Q1015=
METAR LDZD 280030Z 06005KT CAVOK 22/17 Q1015=
METAR LDZD 280000Z 03004KT 320V060 CAVOK 20/18 Q1016=
METAR LDZD 272330Z VRB01KT CAVOK 21/18 Q1016=
METAR LDZD 272300Z 08004KT CAVOK 22/21 Q1016=
METAR LDZD 272230Z VRB02KT CAVOK 22/21 Q1016=
METAR LDZD 272200Z 11003KT CAVOK 21/20 Q1016 NOSIG=
METAR LDZD 272130Z 11004KT CAVOK 22/21 Q1016 NOSIG=
METAR LDZD 272100Z 14004KT CAVOK 22/21 Q1016 NOSIG=
METAR LDZD 272030Z 08002KT CAVOK 23/21 Q1016 NOSIG=
METAR LDZD 272000Z 11004KT CAVOK 24/21 Q1016 NOSIG=
METAR LDZD 271930Z 14004KT CAVOK 25/21 Q1016 NOSIG=
METAR LDZD 271900Z 12004KT 080V140 CAVOK 26/21 Q1015 NOSIG=
METAR LDZD 271830Z 13006KT 9999 FEW070 27/20 Q1015 BECMG VRB02KT=
METAR LDZD 271800Z 13006KT 9999 SCT070 28/20 Q1015 BECMG VRB02KT=
METAR LDZD 271730Z 15008KT CAVOK 29/19 Q1015 BECMG VRB02KT=
METAR LDZD 271700Z 13008KT 100V170 CAVOK 31/18 Q1015 BECMG VRB02KT=
METAR LDZD 271630Z 16007KT 130V200 CAVOK 32/17 Q1015 BECMG VRB02KT=
METAR LDZD 271600Z 16009KT 140V210 CAVOK 33/15 Q1016 NOSIG=
METAR LDZD 271530Z 18008KT 150V210 CAVOK 32/17 Q1016 NOSIG=
METAR LDZD 271500Z 14010KT 100V160 CAVOK 33/17 Q1016 TEMPO 20009KT=
METAR LDZD 271430Z 14010KT 110V180 CAVOK 33/16 Q1016 TEMPO 20009KT=
METAR COR LDZD 271400Z 14009KT 110V190 CAVOK 33/14 Q1016 TEMPO 20009KT=
METAR LDZD 271330Z 19008KT 150V240 CAVOK 34/14 Q1017 NOSIG=
METAR LDZD 271300Z 22009KT 170V250 CAVOK 34/14 Q1017 NOSIG=
METAR LDZD 271230Z 19008KT 150V250 CAVOK 34/13 Q1017 NOSIG=
METAR LDZD 271200Z 18006KT 080V250 CAVOK 34/14 Q1017 NOSIG=
METAR LDZD 271130Z 15008KT 110V180 CAVOK 34/13 Q1017 NOSIG=
METAR LDZD 271100Z 11009KT 060V140 CAVOK 32/14 Q1016 NOSIG=
METAR LDZD 271030Z 21008KT 170V250 CAVOK 32/13 Q1018 NOSIG=
METAR LDZD 271000Z 18009KT 140V230 CAVOK 32/13 Q1018 NOSIG=
METAR LDZD 270930Z 19009KT 160V220 CAVOK 32/13 Q1018 NOSIG=
METAR LDZD 270900Z 17010KT 130V200 CAVOK 32/14 Q1017 BECMG 20009KT=
METAR LDZD 270830Z 16006KT 120V220 CAVOK 33/13 Q1017 BECMG 20009KT=
METAR LDZD 270800Z 14005KT 070V190 CAVOK 32/14 Q1017 NOSIG=
METAR LDZD 270730Z 09004KT 040V130 CAVOK 30/16 Q1017 NOSIG=
METAR LDZD 270700Z VRB02KT CAVOK 28/16 Q1017 NOSIG=
METAR LDZD 270630Z 30004KT 270V330 9999 FEW060 26/17 Q1017 NOSIG=
METAR LDZD 270600Z 32004KT 290V020 9999 FEW060 25/18 Q1017 NOSIG=
METAR LDZD 270530Z VRB01KT 9999 FEW060 24/17 Q1017 NOSIG=
METAR LDZD 270500Z VRB02KT 9999 FEW060 23/18 Q1016 NOSIG=
METAR LDZD 270430Z 07003KT 9999 SCT060 23/16 Q1016 NOSIG=
METAR LDZD 270400Z VRB01KT 9999 FEW060 21/18 Q1016 NOSIG=
METAR LDZD 270330Z 32003KT 290V350 9999 FEW060 21/18 Q1016 NOSIG=
METAR LDZD 270300Z 05003KT 9999 FEW060 20/18 Q1016 NOSIG=
METAR LDZD 270230Z 32003KT 270V360 9999 FEW070 20/18 Q1016 NOSIG=
METAR LDZD 270200Z 30005KT 9999 FEW070 20/17 Q1016 NOSIG=
METAR LDZD 270130Z 08004KT 9999 FEW070 21/16 Q1016=
METAR LDZD 270100Z 11003KT 9999 FEW070 20/17 Q1016=
METAR LDZD 270030Z 09006KT 9999 FEW070 22/17 Q1015=
METAR LDZD 270000Z 07006KT 9999 FEW070 22/18 Q1015=
METAR LDZD 262330Z 15005KT 9999 FEW040 SCT070 21/19 Q1015=
METAR LDZD 262300Z 09004KT 9999 FEW040 SCT070 22/19 Q1016=
METAR LDZD 262230Z 16003KT 9999 FEW040 SCT070 22/19 Q1016=
METAR LDZD 262200Z 16006KT 120V180 9999 FEW040 SCT070 23/20 Q1016=
METAR LDZD 262130Z 20006KT 170V250 9999 FEW040 SCT070 23/21 Q1016 NOSIG=
METAR LDZD 262100Z 14006KT 080V170 9999 -RA FEW035 SCT045 25/20 Q1016 RERA NOSIG=
METAR LDZD 262030Z 12004KT 070V160 9999 SCT070 26/18 Q1015 NOSIG=
METAR LDZD 262000Z 16005KT 120V200 9999 SCT060 27/18 Q1015 TEMPO TSRA SCT030CB=